sensor_id;sensor_type;location;lat;lon;timestamp;P1;durP1;ratioP1;P2;durP2;ratioP2
47589;SDS011;33316;52.298;9.056;2022-07-06T00:01:44;0.47;;;0.28;;
47589;SDS011;33316;52.298;9.056;2022-07-06T00:04:10;0.52;;;0.20;;
47589;SDS011;33316;52.298;9.056;2022-07-06T00:06:35;0.90;;;0.30;;
47589;SDS011;33316;52.298;9.056;2022-07-06T00:09:02;1.25;;;0.40;;
47589;SDS011;33316;52.298;9.056;2022-07-06T00:11:28;0.60;;;0.28;;
47589;SDS011;33316;52.298;9.056;2022-07-06T00:13:54;1.35;;;0.30;;
47589;SDS011;33316;52.298;9.056;2022-07-06T00:16:21;1.20;;;0.30;;
47589;SDS011;33316;52.298;9.056;2022-07-06T00:18:47;1.48;;;0.20;;
47589;SDS011;33316;52.298;9.056;2022-07-06T00:21:13;1.17;;;0.40;;
47589;SDS011;33316;52.298;9.056;2022-07-06T00:23:38;0.50;;;0.30;;
47589;SDS011;33316;52.298;9.056;2022-07-06T00:26:04;1.20;;;0.30;;
47589;SDS011;33316;52.298;9.056;2022-07-06T00:28:30;0.75;;;0.22;;
47589;SDS011;33316;52.298;9.056;2022-07-06T00:30:56;0.80;;;0.30;;
47589;SDS011;33316;52.298;9.056;2022-07-06T00:33:21;0.73;;;0.30;;
47589;SDS011;33316;52.298;9.056;2022-07-06T00:35:47;0.55;;;0.20;;
47589;SDS011;33316;52.298;9.056;2022-07-06T00:38:13;0.60;;;0.35;;
47589;SDS011;33316;52.298;9.056;2022-07-06T00:40:39;1.98;;;0.40;;
47589;SDS011;33316;52.298;9.056;2022-07-06T00:43:05;1.05;;;0.38;;
47589;SDS011;33316;52.298;9.056;2022-07-06T00:45:30;1.20;;;0.30;;
47589;SDS011;33316;52.298;9.056;2022-07-06T00:47:56;1.20;;;0.40;;
47589;SDS011;33316;52.298;9.056;2022-07-06T00:50:21;0.82;;;0.20;;
47589;SDS011;33316;52.298;9.056;2022-07-06T00:52:49;0.77;;;0.30;;
47589;SDS011;33316;52.298;9.056;2022-07-06T00:55:20;1.98;;;0.40;;
47589;SDS011;33316;52.298;9.056;2022-07-06T00:57:50;1.02;;;0.30;;
47589;SDS011;33316;52.298;9.056;2022-07-06T01:00:18;1.10;;;0.30;;
47589;SDS011;33316;52.298;9.056;2022-07-06T01:02:45;1.02;;;0.30;;
47589;SDS011;33316;52.298;9.056;2022-07-06T01:05:12;1.45;;;0.50;;
47589;SDS011;33316;52.298;9.056;2022-07-06T01:07:40;0.80;;;0.22;;
47589;SDS011;33316;52.298;9.056;2022-07-06T01:10:08;1.38;;;0.40;;
47589;SDS011;33316;52.298;9.056;2022-07-06T01:12:39;1.48;;;0.30;;
47589;SDS011;33316;52.298;9.056;2022-07-06T01:15:07;0.47;;;0.20;;
47589;SDS011;33316;52.298;9.056;2022-07-06T01:17:35;1.88;;;0.32;;
47589;SDS011;33316;52.298;9.056;2022-07-06T01:22:38;1.35;;;0.32;;
47589;SDS011;33316;52.298;9.056;2022-07-06T01:25:04;2.38;;;0.30;;
47589;SDS011;33316;52.298;9.056;2022-07-06T01:27:31;0.35;;;0.10;;
47589;SDS011;33316;52.298;9.056;2022-07-06T01:29:59;0.40;;;0.30;;
47589;SDS011;33316;52.298;9.056;2022-07-06T01:32:25;0.32;;;0.32;;
47589;SDS011;33316;52.298;9.056;2022-07-06T01:34:50;1.67;;;0.30;;
47589;SDS011;33316;52.298;9.056;2022-07-06T01:37:16;0.45;;;0.20;;
47589;SDS011;33316;52.298;9.056;2022-07-06T01:39:41;1.02;;;0.30;;
47589;SDS011;33316;52.298;9.056;2022-07-06T01:42:07;0.65;;;0.30;;
47589;SDS011;33316;52.298;9.056;2022-07-06T01:44:32;0.90;;;0.28;;
47589;SDS011;33316;52.298;9.056;2022-07-06T01:46:58;0.65;;;0.40;;
47589;SDS011;33316;52.298;9.056;2022-07-06T01:49:24;0.65;;;0.28;;
47589;SDS011;33316;52.298;9.056;2022-07-06T01:51:49;1.80;;;0.45;;
47589;SDS011;33316;52.298;9.056;2022-07-06T01:54:15;0.50;;;0.20;;
47589;SDS011;33316;52.298;9.056;2022-07-06T01:56:40;1.38;;;0.40;;
47589;SDS011;33316;52.298;9.056;2022-07-06T01:59:06;1.17;;;0.38;;
47589;SDS011;33316;52.298;9.056;2022-07-06T02:01:31;1.30;;;0.40;;
47589;SDS011;33316;52.298;9.056;2022-07-06T02:03:57;0.60;;;0.30;;
47589;SDS011;33316;52.298;9.056;2022-07-06T02:06:22;1.73;;;0.40;;
47589;SDS011;33316;52.298;9.056;2022-07-06T02:08:48;1.52;;;0.30;;
47589;SDS011;33316;52.298;9.056;2022-07-06T02:11:13;1.15;;;0.40;;
47589;SDS011;33316;52.298;9.056;2022-07-06T02:13:39;1.15;;;0.32;;
47589;SDS011;33316;52.298;9.056;2022-07-06T02:16:04;0.57;;;0.28;;
47589;SDS011;33316;52.298;9.056;2022-07-06T02:18:30;0.65;;;0.30;;
47589;SDS011;33316;52.298;9.056;2022-07-06T02:20:56;1.67;;;0.45;;
47589;SDS011;33316;52.298;9.056;2022-07-06T02:23:21;1.77;;;0.50;;
47589;SDS011;33316;52.298;9.056;2022-07-06T02:25:47;0.68;;;0.50;;
47589;SDS011;33316;52.298;9.056;2022-07-06T02:28:13;1.60;;;0.40;;
47589;SDS011;33316;52.298;9.056;2022-07-06T02:30:38;3.22;;;0.25;;
47589;SDS011;33316;52.298;9.056;2022-07-06T02:33:04;2.10;;;0.40;;
47589;SDS011;33316;52.298;9.056;2022-07-06T02:35:29;0.63;;;0.35;;
47589;SDS011;33316;52.298;9.056;2022-07-06T02:37:55;1.83;;;0.40;;
47589;SDS011;33316;52.298;9.056;2022-07-06T02:40:20;0.43;;;0.30;;
47589;SDS011;33316;52.298;9.056;2022-07-06T02:42:46;1.17;;;0.38;;
47589;SDS011;33316;52.298;9.056;2022-07-06T02:45:11;1.05;;;0.20;;
47589;SDS011;33316;52.298;9.056;2022-07-06T02:47:37;0.85;;;0.30;;
47589;SDS011;33316;52.298;9.056;2022-07-06T02:50:03;0.75;;;0.30;;
47589;SDS011;33316;52.298;9.056;2022-07-06T02:52:29;0.93;;;0.30;;
47589;SDS011;33316;52.298;9.056;2022-07-06T02:54:55;1.45;;;0.40;;
47589;SDS011;33316;52.298;9.056;2022-07-06T02:57:20;1.13;;;0.30;;
47589;SDS011;33316;52.298;9.056;2022-07-06T02:59:46;0.75;;;0.30;;
47589;SDS011;33316;52.298;9.056;2022-07-06T03:02:14;1.92;;;0.80;;
47589;SDS011;33316;52.298;9.056;2022-07-06T03:04:43;1.45;;;0.50;;
47589;SDS011;33316;52.298;9.056;2022-07-06T03:07:09;1.13;;;0.30;;
47589;SDS011;33316;52.298;9.056;2022-07-06T03:09:34;1.13;;;0.30;;
47589;SDS011;33316;52.298;9.056;2022-07-06T03:12:00;1.33;;;0.60;;
47589;SDS011;33316;52.298;9.056;2022-07-06T03:14:26;2.03;;;0.30;;
47589;SDS011;33316;52.298;9.056;2022-07-06T03:16:52;1.13;;;0.50;;
47589;SDS011;33316;52.298;9.056;2022-07-06T03:19:19;1.25;;;0.40;;
47589;SDS011;33316;52.298;9.056;2022-07-06T03:21:44;1.40;;;0.40;;
47589;SDS011;33316;52.298;9.056;2022-07-06T03:24:10;0.93;;;0.28;;
47589;SDS011;33316;52.298;9.056;2022-07-06T03:26:36;0.85;;;0.40;;
47589;SDS011;33316;52.298;9.056;2022-07-06T03:29:01;0.50;;;0.30;;
47589;SDS011;33316;52.298;9.056;2022-07-06T03:31:27;1.75;;;0.30;;
47589;SDS011;33316;52.298;9.056;2022-07-06T03:33:53;0.90;;;0.30;;
47589;SDS011;33316;52.298;9.056;2022-07-06T03:36:18;0.90;;;0.40;;
47589;SDS011;33316;52.298;9.056;2022-07-06T03:38:44;1.40;;;0.40;;
47589;SDS011;33316;52.298;9.056;2022-07-06T03:41:09;1.38;;;0.40;;
47589;SDS011;33316;52.298;9.056;2022-07-06T03:43:35;0.85;;;0.30;;
47589;SDS011;33316;52.298;9.056;2022-07-06T03:46:00;1.92;;;0.40;;
47589;SDS011;33316;52.298;9.056;2022-07-06T03:48:26;0.70;;;0.30;;
47589;SDS011;33316;52.298;9.056;2022-07-06T03:50:52;2.17;;;0.32;;
47589;SDS011;33316;52.298;9.056;2022-07-06T03:53:17;2.28;;;0.43;;
47589;SDS011;33316;52.298;9.056;2022-07-06T03:55:43;1.15;;;0.40;;
47589;SDS011;33316;52.298;9.056;2022-07-06T03:58:28;0.90;;;0.30;;
47589;SDS011;33316;52.298;9.056;2022-07-06T04:00:54;1.20;;;0.40;;
47589;SDS011;33316;52.298;9.056;2022-07-06T04:03:19;0.73;;;0.38;;
47589;SDS011;33316;52.298;9.056;2022-07-06T04:05:45;2.67;;;0.60;;
47589;SDS011;33316;52.298;9.056;2022-07-06T04:08:10;1.58;;;0.50;;
47589;SDS011;33316;52.298;9.056;2022-07-06T04:10:36;1.75;;;0.30;;
47589;SDS011;33316;52.298;9.056;2022-07-06T04:13:01;1.25;;;0.43;;
47589;SDS011;33316;52.298;9.056;2022-07-06T04:15:27;0.82;;;0.30;;
47589;SDS011;33316;52.298;9.056;2022-07-06T04:17:52;2.42;;;0.38;;
47589;SDS011;33316;52.298;9.056;2022-07-06T04:20:18;2.08;;;0.77;;
47589;SDS011;33316;52.298;9.056;2022-07-06T04:22:45;0.95;;;0.20;;
47589;SDS011;33316;52.298;9.056;2022-07-06T04:25:11;1.83;;;0.40;;
47589;SDS011;33316;52.298;9.056;2022-07-06T04:27:37;1.88;;;0.35;;
47589;SDS011;33316;52.298;9.056;2022-07-06T04:30:03;1.15;;;0.30;;
47589;SDS011;33316;52.298;9.056;2022-07-06T04:32:30;1.25;;;0.45;;
47589;SDS011;33316;52.298;9.056;2022-07-06T04:34:56;0.60;;;0.30;;
47589;SDS011;33316;52.298;9.056;2022-07-06T04:37:22;2.20;;;0.40;;
47589;SDS011;33316;52.298;9.056;2022-07-06T04:39:47;0.82;;;0.32;;
47589;SDS011;33316;52.298;9.056;2022-07-06T04:42:13;0.47;;;0.30;;
47589;SDS011;33316;52.298;9.056;2022-07-06T04:44:38;3.10;;;0.60;;
47589;SDS011;33316;52.298;9.056;2022-07-06T04:47:04;2.08;;;0.50;;
47589;SDS011;33316;52.298;9.056;2022-07-06T04:49:30;0.82;;;0.40;;
47589;SDS011;33316;52.298;9.056;2022-07-06T04:51:55;2.90;;;0.40;;
47589;SDS011;33316;52.298;9.056;2022-07-06T04:54:21;0.75;;;0.38;;
47589;SDS011;33316;52.298;9.056;2022-07-06T04:56:47;1.60;;;0.40;;
47589;SDS011;33316;52.298;9.056;2022-07-06T04:59:13;2.35;;;0.50;;
47589;SDS011;33316;52.298;9.056;2022-07-06T05:01:39;0.88;;;0.40;;
47589;SDS011;33316;52.298;9.056;2022-07-06T05:04:05;1.35;;;0.40;;
47589;SDS011;33316;52.298;9.056;2022-07-06T05:06:31;1.17;;;0.43;;
47589;SDS011;33316;52.298;9.056;2022-07-06T05:08:57;1.40;;;0.40;;
47589;SDS011;33316;52.298;9.056;2022-07-06T05:11:24;1.88;;;0.30;;
47589;SDS011;33316;52.298;9.056;2022-07-06T05:13:50;1.58;;;0.40;;
47589;SDS011;33316;52.298;9.056;2022-07-06T05:16:16;2.00;;;0.40;;
47589;SDS011;33316;52.298;9.056;2022-07-06T05:18:41;1.35;;;0.32;;
47589;SDS011;33316;52.298;9.056;2022-07-06T05:21:07;1.80;;;0.50;;
47589;SDS011;33316;52.298;9.056;2022-07-06T05:23:32;0.45;;;0.20;;
47589;SDS011;33316;52.298;9.056;2022-07-06T05:25:59;1.00;;;0.45;;
47589;SDS011;33316;52.298;9.056;2022-07-06T05:28:24;1.08;;;0.40;;
47589;SDS011;33316;52.298;9.056;2022-07-06T05:30:50;1.33;;;0.40;;
47589;SDS011;33316;52.298;9.056;2022-07-06T05:33:15;0.77;;;0.30;;
47589;SDS011;33316;52.298;9.056;2022-07-06T05:35:41;2.08;;;0.50;;
47589;SDS011;33316;52.298;9.056;2022-07-06T05:38:07;1.77;;;0.35;;
47589;SDS011;33316;52.298;9.056;2022-07-06T05:40:32;1.10;;;0.50;;
47589;SDS011;33316;52.298;9.056;2022-07-06T05:42:58;0.90;;;0.40;;
47589;SDS011;33316;52.298;9.056;2022-07-06T05:45:24;1.25;;;0.40;;
47589;SDS011;33316;52.298;9.056;2022-07-06T05:47:49;0.50;;;0.30;;
47589;SDS011;33316;52.298;9.056;2022-07-06T05:50:33;1.30;;;0.40;;
47589;SDS011;33316;52.298;9.056;2022-07-06T05:53:00;2.05;;;0.60;;
47589;SDS011;33316;52.298;9.056;2022-07-06T05:55:28;1.15;;;0.40;;
47589;SDS011;33316;52.298;9.056;2022-07-06T05:57:54;1.48;;;0.30;;
47589;SDS011;33316;52.298;9.056;2022-07-06T06:00:21;1.85;;;0.40;;
47589;SDS011;33316;52.298;9.056;2022-07-06T06:02:50;2.05;;;0.38;;
47589;SDS011;33316;52.298;9.056;2022-07-06T06:05:16;1.23;;;0.40;;
47589;SDS011;33316;52.298;9.056;2022-07-06T06:07:43;0.70;;;0.40;;
47589;SDS011;33316;52.298;9.056;2022-07-06T06:10:11;0.80;;;0.30;;
47589;SDS011;33316;52.298;9.056;2022-07-06T06:12:37;2.83;;;0.52;;
47589;SDS011;33316;52.298;9.056;2022-07-06T06:15:04;2.22;;;0.40;;
47589;SDS011;33316;52.298;9.056;2022-07-06T06:17:30;0.93;;;0.35;;
47589;SDS011;33316;52.298;9.056;2022-07-06T06:19:56;1.90;;;0.30;;
47589;SDS011;33316;52.298;9.056;2022-07-06T06:22:22;0.70;;;0.32;;
47589;SDS011;33316;52.298;9.056;2022-07-06T06:24:48;0.88;;;0.30;;
47589;SDS011;33316;52.298;9.056;2022-07-06T06:27:14;2.10;;;0.57;;
47589;SDS011;33316;52.298;9.056;2022-07-06T06:29:39;2.10;;;0.45;;
47589;SDS011;33316;52.298;9.056;2022-07-06T06:32:06;1.63;;;0.50;;
47589;SDS011;33316;52.298;9.056;2022-07-06T06:34:32;0.95;;;0.35;;
47589;SDS011;33316;52.298;9.056;2022-07-06T06:36:58;1.65;;;0.32;;
47589;SDS011;33316;52.298;9.056;2022-07-06T06:39:23;3.30;;;0.40;;
47589;SDS011;33316;52.298;9.056;2022-07-06T06:41:49;1.02;;;0.38;;
47589;SDS011;33316;52.298;9.056;2022-07-06T06:44:15;0.63;;;0.20;;
47589;SDS011;33316;52.298;9.056;2022-07-06T06:46:41;1.10;;;0.40;;
47589;SDS011;33316;52.298;9.056;2022-07-06T06:49:06;1.05;;;0.38;;
47589;SDS011;33316;52.298;9.056;2022-07-06T06:51:32;1.73;;;0.30;;
47589;SDS011;33316;52.298;9.056;2022-07-06T06:53:58;1.65;;;0.30;;
47589;SDS011;33316;52.298;9.056;2022-07-06T06:56:24;0.85;;;0.30;;
47589;SDS011;33316;52.298;9.056;2022-07-06T06:58:49;0.77;;;0.25;;
47589;SDS011;33316;52.298;9.056;2022-07-06T07:01:15;1.48;;;0.40;;
47589;SDS011;33316;52.298;9.056;2022-07-06T07:03:41;1.00;;;0.30;;
47589;SDS011;33316;52.298;9.056;2022-07-06T07:06:06;0.75;;;0.30;;
47589;SDS011;33316;52.298;9.056;2022-07-06T07:08:32;1.90;;;0.30;;
47589;SDS011;33316;52.298;9.056;2022-07-06T07:10:57;3.53;;;0.45;;
47589;SDS011;33316;52.298;9.056;2022-07-06T07:13:23;1.75;;;0.40;;
47589;SDS011;33316;52.298;9.056;2022-07-06T07:15:49;1.80;;;0.40;;
47589;SDS011;33316;52.298;9.056;2022-07-06T07:18:14;0.70;;;0.30;;
47589;SDS011;33316;52.298;9.056;2022-07-06T07:20:40;0.73;;;0.28;;
47589;SDS011;33316;52.298;9.056;2022-07-06T07:23:05;1.23;;;0.30;;
47589;SDS011;33316;52.298;9.056;2022-07-06T07:25:31;1.67;;;0.40;;
47589;SDS011;33316;52.298;9.056;2022-07-06T07:27:56;1.90;;;0.40;;
47589;SDS011;33316;52.298;9.056;2022-07-06T07:30:22;1.77;;;0.50;;
47589;SDS011;33316;52.298;9.056;2022-07-06T07:32:47;2.15;;;0.60;;
47589;SDS011;33316;52.298;9.056;2022-07-06T07:35:13;0.90;;;0.25;;
47589;SDS011;33316;52.298;9.056;2022-07-06T07:37:39;0.88;;;0.20;;
47589;SDS011;33316;52.298;9.056;2022-07-06T07:40:04;3.08;;;0.20;;
47589;SDS011;33316;52.298;9.056;2022-07-06T07:42:31;1.52;;;0.30;;
47589;SDS011;33316;52.298;9.056;2022-07-06T07:44:56;2.40;;;0.30;;
47589;SDS011;33316;52.298;9.056;2022-07-06T07:47:22;1.40;;;0.20;;
47589;SDS011;33316;52.298;9.056;2022-07-06T07:49:48;2.03;;;0.40;;
47589;SDS011;33316;52.298;9.056;2022-07-06T07:52:13;1.02;;;0.30;;
47589;SDS011;33316;52.298;9.056;2022-07-06T07:54:39;0.38;;;0.25;;
47589;SDS011;33316;52.298;9.056;2022-07-06T07:57:04;1.35;;;0.28;;
47589;SDS011;33316;52.298;9.056;2022-07-06T07:59:30;0.45;;;0.10;;
47589;SDS011;33316;52.298;9.056;2022-07-06T08:01:56;0.30;;;0.10;;
47589;SDS011;33316;52.298;9.056;2022-07-06T08:04:21;1.38;;;0.30;;
47589;SDS011;33316;52.298;9.056;2022-07-06T08:06:47;0.80;;;0.28;;
47589;SDS011;33316;52.298;9.056;2022-07-06T08:09:13;1.48;;;0.35;;
47589;SDS011;33316;52.298;9.056;2022-07-06T08:11:38;0.63;;;0.30;;
47589;SDS011;33316;52.298;9.056;2022-07-06T08:14:04;0.70;;;0.20;;
47589;SDS011;33316;52.298;9.056;2022-07-06T08:16:30;0.85;;;0.20;;
47589;SDS011;33316;52.298;9.056;2022-07-06T08:18:56;1.67;;;0.40;;
47589;SDS011;33316;52.298;9.056;2022-07-06T08:21:22;1.05;;;0.32;;
47589;SDS011;33316;52.298;9.056;2022-07-06T08:23:48;3.42;;;0.73;;
47589;SDS011;33316;52.298;9.056;2022-07-06T08:26:14;1.40;;;0.60;;
47589;SDS011;33316;52.298;9.056;2022-07-06T08:28:39;1.05;;;0.50;;
47589;SDS011;33316;52.298;9.056;2022-07-06T08:31:05;1.42;;;0.40;;
47589;SDS011;33316;52.298;9.056;2022-07-06T08:33:30;1.40;;;0.43;;
47589;SDS011;33316;52.298;9.056;2022-07-06T08:35:56;0.63;;;0.13;;
47589;SDS011;33316;52.298;9.056;2022-07-06T08:38:22;1.33;;;0.50;;
47589;SDS011;33316;52.298;9.056;2022-07-06T08:40:48;0.40;;;0.20;;
47589;SDS011;33316;52.298;9.056;2022-07-06T08:43:15;2.05;;;0.50;;
47589;SDS011;33316;52.298;9.056;2022-07-06T08:45:41;1.67;;;0.52;;
47589;SDS011;33316;52.298;9.056;2022-07-06T08:48:10;1.63;;;0.30;;
47589;SDS011;33316;52.298;9.056;2022-07-06T08:50:37;1.60;;;0.25;;
47589;SDS011;33316;52.298;9.056;2022-07-06T08:53:03;1.35;;;0.20;;
47589;SDS011;33316;52.298;9.056;2022-07-06T08:55:29;1.60;;;0.20;;
47589;SDS011;33316;52.298;9.056;2022-07-06T08:57:55;1.23;;;0.38;;
47589;SDS011;33316;52.298;9.056;2022-07-06T09:00:21;0.68;;;0.20;;
47589;SDS011;33316;52.298;9.056;2022-07-06T09:02:48;0.52;;;0.17;;
47589;SDS011;33316;52.298;9.056;2022-07-06T09:05:16;1.75;;;0.30;;
47589;SDS011;33316;52.298;9.056;2022-07-06T09:07:42;1.08;;;0.30;;
47589;SDS011;33316;52.298;9.056;2022-07-06T09:10:12;0.73;;;0.20;;
47589;SDS011;33316;52.298;9.056;2022-07-06T09:12:37;1.92;;;0.10;;
47589;SDS011;33316;52.298;9.056;2022-07-06T09:15:03;1.38;;;0.20;;
47589;SDS011;33316;52.298;9.056;2022-07-06T09:17:29;0.05;;;0.00;;
47589;SDS011;33316;52.298;9.056;2022-07-06T09:19:55;0.00;;;0.00;;
47589;SDS011;33316;52.298;9.056;2022-07-06T09:22:28;0.57;;;0.10;;
47589;SDS011;33316;52.298;9.056;2022-07-06T09:25:06;1.17;;;0.10;;
47589;SDS011;33316;52.298;9.056;2022-07-06T09:27:36;0.52;;;0.10;;
47589;SDS011;33316;52.298;9.056;2022-07-06T09:30:06;1.45;;;0.17;;
47589;SDS011;33316;52.298;9.056;2022-07-06T09:35:06;0.90;;;0.20;;
47589;SDS011;33316;52.298;9.056;2022-07-06T09:37:31;0.30;;;0.10;;
47589;SDS011;33316;52.298;9.056;2022-07-06T09:39:57;0.57;;;0.13;;
47589;SDS011;33316;52.298;9.056;2022-07-06T09:42:26;0.68;;;0.00;;
47589;SDS011;33316;52.298;9.056;2022-07-06T09:44:51;1.25;;;0.10;;
47589;SDS011;33316;52.298;9.056;2022-07-06T09:47:18;0.52;;;0.10;;
47589;SDS011;33316;52.298;9.056;2022-07-06T09:49:45;0.40;;;0.10;;
47589;SDS011;33316;52.298;9.056;2022-07-06T09:52:13;0.32;;;0.00;;
47589;SDS011;33316;52.298;9.056;2022-07-06T09:54:39;0.25;;;0.13;;
47589;SDS011;33316;52.298;9.056;2022-07-06T09:57:05;0.10;;;0.05;;
47589;SDS011;33316;52.298;9.056;2022-07-06T09:59:32;0.40;;;0.10;;
47589;SDS011;33316;52.298;9.056;2022-07-06T10:02:02;0.25;;;0.10;;
47589;SDS011;33316;52.298;9.056;2022-07-06T10:04:32;1.15;;;0.10;;
47589;SDS011;33316;52.298;9.056;2022-07-06T10:06:58;1.48;;;0.30;;
47589;SDS011;33316;52.298;9.056;2022-07-06T10:09:26;2.10;;;0.10;;
47589;SDS011;33316;52.298;9.056;2022-07-06T10:11:54;2.20;;;0.30;;
47589;SDS011;33316;52.298;9.056;2022-07-06T10:14:26;2.60;;;0.20;;
47589;SDS011;33316;52.298;9.056;2022-07-06T10:16:54;0.20;;;0.15;;
47589;SDS011;33316;52.298;9.056;2022-07-06T10:19:23;0.50;;;0.20;;
47589;SDS011;33316;52.298;9.056;2022-07-06T10:21:50;0.60;;;0.10;;
47589;SDS011;33316;52.298;9.056;2022-07-06T10:24:20;0.40;;;0.10;;
47589;SDS011;33316;52.298;9.056;2022-07-06T10:26:46;0.73;;;0.08;;
47589;SDS011;33316;52.298;9.056;2022-07-06T10:29:12;0.40;;;0.13;;
47589;SDS011;33316;52.298;9.056;2022-07-06T10:31:39;0.28;;;0.10;;
47589;SDS011;33316;52.298;9.056;2022-07-06T10:34:09;0.68;;;0.10;;
47589;SDS011;33316;52.298;9.056;2022-07-06T10:36:37;0.30;;;0.08;;
47589;SDS011;33316;52.298;9.056;2022-07-06T10:39:04;0.30;;;0.10;;
47589;SDS011;33316;52.298;9.056;2022-07-06T10:41:49;0.40;;;0.10;;
47589;SDS011;33316;52.298;9.056;2022-07-06T10:44:19;1.38;;;0.10;;
47589;SDS011;33316;52.298;9.056;2022-07-06T10:46:50;0.10;;;0.10;;
47589;SDS011;33316;52.298;9.056;2022-07-06T10:49:20;0.10;;;0.00;;
47589;SDS011;33316;52.298;9.056;2022-07-06T10:51:47;1.00;;;0.10;;
47589;SDS011;33316;52.298;9.056;2022-07-06T10:54:14;0.00;;;0.00;;
47589;SDS011;33316;52.298;9.056;2022-07-06T10:56:42;1.20;;;0.10;;
47589;SDS011;33316;52.298;9.056;2022-07-06T10:59:16;0.63;;;0.10;;
47589;SDS011;33316;52.298;9.056;2022-07-06T11:04:40;1.15;;;0.08;;
47589;SDS011;33316;52.298;9.056;2022-07-06T11:07:15;0.40;;;0.10;;
47589;SDS011;33316;52.298;9.056;2022-07-06T11:09:55;0.30;;;0.10;;
47589;SDS011;33316;52.298;9.056;2022-07-06T11:12:24;1.85;;;0.17;;
47589;SDS011;33316;52.298;9.056;2022-07-06T11:14:51;0.40;;;0.20;;
47589;SDS011;33316;52.298;9.056;2022-07-06T11:17:17;0.63;;;0.05;;
47589;SDS011;33316;52.298;9.056;2022-07-06T11:19:50;0.63;;;0.20;;
47589;SDS011;33316;52.298;9.056;2022-07-06T11:22:24;1.02;;;0.10;;
47589;SDS011;33316;52.298;9.056;2022-07-06T11:24:51;0.52;;;0.15;;
47589;SDS011;33316;52.298;9.056;2022-07-06T11:27:17;0.50;;;0.20;;
47589;SDS011;33316;52.298;9.056;2022-07-06T11:29:43;0.45;;;0.10;;
47589;SDS011;33316;52.298;9.056;2022-07-06T11:32:10;0.57;;;0.20;;
47589;SDS011;33316;52.298;9.056;2022-07-06T11:34:39;0.40;;;0.17;;
47589;SDS011;33316;52.298;9.056;2022-07-06T11:37:15;0.77;;;0.20;;
47589;SDS011;33316;52.298;9.056;2022-07-06T11:39:43;1.25;;;0.20;;
47589;SDS011;33316;52.298;9.056;2022-07-06T11:42:10;0.38;;;0.10;;
47589;SDS011;33316;52.298;9.056;2022-07-06T11:44:40;0.60;;;0.10;;
47589;SDS011;33316;52.298;9.056;2022-07-06T11:47:07;0.45;;;0.10;;
47589;SDS011;33316;52.298;9.056;2022-07-06T11:49:34;4.55;;;0.20;;
47589;SDS011;33316;52.298;9.056;2022-07-06T11:52:11;0.38;;;0.10;;
47589;SDS011;33316;52.298;9.056;2022-07-06T11:54:38;2.05;;;0.10;;
47589;SDS011;33316;52.298;9.056;2022-07-06T11:57:09;0.80;;;0.05;;
47589;SDS011;33316;52.298;9.056;2022-07-06T11:59:36;0.40;;;0.10;;
47589;SDS011;33316;52.298;9.056;2022-07-06T12:02:04;1.67;;;0.20;;
47589;SDS011;33316;52.298;9.056;2022-07-06T12:04:35;0.85;;;0.13;;
47589;SDS011;33316;52.298;9.056;2022-07-06T12:07:03;0.15;;;0.10;;
47589;SDS011;33316;52.298;9.056;2022-07-06T12:09:34;2.25;;;0.20;;
47589;SDS011;33316;52.298;9.056;2022-07-06T12:12:02;2.13;;;0.20;;
47589;SDS011;33316;52.298;9.056;2022-07-06T12:14:29;0.55;;;0.15;;
47589;SDS011;33316;52.298;9.056;2022-07-06T12:16:56;0.43;;;0.10;;
47589;SDS011;33316;52.298;9.056;2022-07-06T12:19:27;0.10;;;0.00;;
47589;SDS011;33316;52.298;9.056;2022-07-06T12:21:52;2.08;;;0.20;;
47589;SDS011;33316;52.298;9.056;2022-07-06T12:24:22;0.55;;;0.20;;
47589;SDS011;33316;52.298;9.056;2022-07-06T12:26:53;1.08;;;0.20;;
47589;SDS011;33316;52.298;9.056;2022-07-06T12:29:20;1.13;;;0.20;;
47589;SDS011;33316;52.298;9.056;2022-07-06T12:34:25;1.85;;;0.17;;
47589;SDS011;33316;52.298;9.056;2022-07-06T12:36:53;0.32;;;0.20;;
47589;SDS011;33316;52.298;9.056;2022-07-06T12:39:21;0.38;;;0.10;;
47589;SDS011;33316;52.298;9.056;2022-07-06T12:42:00;1.23;;;0.10;;
47589;SDS011;33316;52.298;9.056;2022-07-06T12:44:28;0.95;;;0.20;;
47589;SDS011;33316;52.298;9.056;2022-07-06T12:47:07;0.52;;;0.10;;
47589;SDS011;33316;52.298;9.056;2022-07-06T12:49:34;0.65;;;0.10;;
47589;SDS011;33316;52.298;9.056;2022-07-06T12:52:02;0.70;;;0.10;;
47589;SDS011;33316;52.298;9.056;2022-07-06T12:54:35;0.45;;;0.10;;
47589;SDS011;33316;52.298;9.056;2022-07-06T12:59:56;0.32;;;0.10;;
47589;SDS011;33316;52.298;9.056;2022-07-06T13:02:23;0.10;;;0.08;;
47589;SDS011;33316;52.298;9.056;2022-07-06T13:07:27;0.25;;;0.10;;
47589;SDS011;33316;52.298;9.056;2022-07-06T13:09:54;0.25;;;0.05;;
47589;SDS011;33316;52.298;9.056;2022-07-06T13:12:20;0.35;;;0.10;;
47589;SDS011;33316;52.298;9.056;2022-07-06T13:14:46;0.70;;;0.10;;
47589;SDS011;33316;52.298;9.056;2022-07-06T13:17:12;1.10;;;0.10;;
47589;SDS011;33316;52.298;9.056;2022-07-06T13:19:37;1.08;;;0.10;;
47589;SDS011;33316;52.298;9.056;2022-07-06T13:22:03;0.17;;;0.10;;
47589;SDS011;33316;52.298;9.056;2022-07-06T13:24:29;0.35;;;0.05;;
47589;SDS011;33316;52.298;9.056;2022-07-06T13:26:55;0.50;;;0.10;;
47589;SDS011;33316;52.298;9.056;2022-07-06T13:29:22;0.68;;;0.13;;
47589;SDS011;33316;52.298;9.056;2022-07-06T13:31:48;0.73;;;0.10;;
47589;SDS011;33316;52.298;9.056;2022-07-06T13:34:14;0.50;;;0.10;;
47589;SDS011;33316;52.298;9.056;2022-07-06T13:36:39;0.10;;;0.00;;
47589;SDS011;33316;52.298;9.056;2022-07-06T13:39:05;0.10;;;0.00;;
47589;SDS011;33316;52.298;9.056;2022-07-06T13:41:32;0.28;;;0.10;;
47589;SDS011;33316;52.298;9.056;2022-07-06T13:43:57;0.17;;;0.10;;
47589;SDS011;33316;52.298;9.056;2022-07-06T13:46:25;0.35;;;0.05;;
47589;SDS011;33316;52.298;9.056;2022-07-06T13:48:52;0.32;;;0.03;;
47589;SDS011;33316;52.298;9.056;2022-07-06T13:51:18;0.57;;;0.10;;
47589;SDS011;33316;52.298;9.056;2022-07-06T13:53:43;0.10;;;0.00;;
47589;SDS011;33316;52.298;9.056;2022-07-06T13:56:09;0.30;;;0.10;;
47589;SDS011;33316;52.298;9.056;2022-07-06T13:58:35;0.22;;;0.10;;
47589;SDS011;33316;52.298;9.056;2022-07-06T14:01:01;1.65;;;0.10;;
47589;SDS011;33316;52.298;9.056;2022-07-06T14:03:26;0.63;;;0.10;;
47589;SDS011;33316;52.298;9.056;2022-07-06T14:05:54;1.73;;;0.20;;
47589;SDS011;33316;52.298;9.056;2022-07-06T14:08:21;1.05;;;0.20;;
47589;SDS011;33316;52.298;9.056;2022-07-06T14:10:46;1.08;;;0.10;;
47589;SDS011;33316;52.298;9.056;2022-07-06T14:13:12;0.75;;;0.10;;
47589;SDS011;33316;52.298;9.056;2022-07-06T14:15:37;0.73;;;0.10;;
47589;SDS011;33316;52.298;9.056;2022-07-06T14:18:03;0.03;;;0.00;;
47589;SDS011;33316;52.298;9.056;2022-07-06T14:20:29;0.22;;;0.00;;
47589;SDS011;33316;52.298;9.056;2022-07-06T14:22:54;0.10;;;0.08;;
47589;SDS011;33316;52.298;9.056;2022-07-06T14:25:20;0.93;;;0.20;;
47589;SDS011;33316;52.298;9.056;2022-07-06T14:27:46;0.10;;;0.00;;
47589;SDS011;33316;52.298;9.056;2022-07-06T14:30:11;0.63;;;0.20;;
47589;SDS011;33316;52.298;9.056;2022-07-06T14:32:37;0.52;;;0.10;;
47589;SDS011;33316;52.298;9.056;2022-07-06T14:35:03;0.57;;;0.10;;
47589;SDS011;33316;52.298;9.056;2022-07-06T14:37:28;1.13;;;0.10;;
47589;SDS011;33316;52.298;9.056;2022-07-06T14:39:54;0.25;;;0.00;;
47589;SDS011;33316;52.298;9.056;2022-07-06T14:42:19;0.32;;;0.10;;
47589;SDS011;33316;52.298;9.056;2022-07-06T14:44:45;0.10;;;0.00;;
47589;SDS011;33316;52.298;9.056;2022-07-06T14:47:10;0.10;;;0.03;;
47589;SDS011;33316;52.298;9.056;2022-07-06T14:49:36;0.43;;;0.00;;
47589;SDS011;33316;52.298;9.056;2022-07-06T14:52:02;0.32;;;0.08;;
47589;SDS011;33316;52.298;9.056;2022-07-06T14:54:28;0.22;;;0.00;;
47589;SDS011;33316;52.298;9.056;2022-07-06T14:56:54;0.65;;;0.13;;
47589;SDS011;33316;52.298;9.056;2022-07-06T14:59:19;1.23;;;0.20;;
47589;SDS011;33316;52.298;9.056;2022-07-06T15:01:45;0.00;;;0.00;;